N943BC EKCH-EDDC
Flight info
| Callsign | N943BC |
|---|---|
| Flight time | 0h 50m |
| Altitude | 35000 |
| Route | SALLO DCT BEBEB Z14 USEDU DCT IDOBA M725 KOBUS P31 GARKI |
| Aircraft | B772/H-SDE2E3FGHIJ5LORVWXY/LB1D1 |
Departure
| Time | 2026-04-24 13:43 |
|---|---|
| Airport | Copenhagen Kastrup Airport (EKCH) |
Arrival
| Time | 2026-04-24 14:33 |
|---|---|
| Airport | Dresden Airport (EDDC) |
| Time | Latitude | Longitude | Altitude | Speed | Heading |
|---|---|---|---|---|---|
| 2026-04-24 13:17 | 55.62800 | 12.66557 | 24 ft | 0 kts | 131° |
| 2026-04-24 13:24 | 55.62721 | 12.66480 | 23 ft | 0 kts | 131° |
| 2026-04-24 13:30 | 55.62730 | 12.66462 | 24 ft | 4 kts | 131° |
| 2026-04-24 13:30 | 55.62747 | 12.66427 | 26 ft | 4 kts | 131° |
| 2026-04-24 13:30 | 55.62761 | 12.66398 | 26 ft | 4 kts | 138° |
| 2026-04-24 13:31 | 55.62781 | 12.66382 | 27 ft | 4 kts | 200° |
| 2026-04-24 13:31 | 55.62801 | 12.66406 | 26 ft | 4 kts | 221° |
| 2026-04-24 13:31 | 55.62809 | 12.66418 | 25 ft | 0 kts | 221° |
| 2026-04-24 13:34 | 55.62790 | 12.66390 | 27 ft | 4 kts | 221° |
| 2026-04-24 13:34 | 55.62768 | 12.66355 | 27 ft | 4 kts | 221° |
| 2026-04-24 13:34 | 55.62745 | 12.66320 | 24 ft | 4 kts | 221° |
| 2026-04-24 13:34 | 55.62722 | 12.66284 | 24 ft | 5 kts | 221° |
| 2026-04-24 13:35 | 55.62662 | 12.66192 | 24 ft | 14 kts | 221° |
| 2026-04-24 13:35 | 55.62575 | 12.66140 | 24 ft | 14 kts | 178° |
| 2026-04-24 13:35 | 55.62491 | 12.66208 | 22 ft | 13 kts | 160° |
| 2026-04-24 13:35 | 55.62409 | 12.66143 | 23 ft | 14 kts | 219° |
| 2026-04-24 13:36 | 55.62339 | 12.66031 | 26 ft | 14 kts | 223° |
| 2026-04-24 13:36 | 55.62301 | 12.65884 | 25 ft | 14 kts | 266° |
| 2026-04-24 13:36 | 55.62299 | 12.65719 | 25 ft | 14 kts | 270° |
| 2026-04-24 13:36 | 55.62295 | 12.65608 | 24 ft | 7 kts | 266° |
| 2026-04-24 13:37 | 55.62294 | 12.65519 | 24 ft | 10 kts | 270° |
| 2026-04-24 13:37 | 55.62294 | 12.65391 | 24 ft | 10 kts | 269° |
| 2026-04-24 13:37 | 55.62288 | 12.65265 | 23 ft | 10 kts | 257° |
| 2026-04-24 13:37 | 55.62233 | 12.65195 | 25 ft | 10 kts | 197° |
| 2026-04-24 13:38 | 55.62145 | 12.65108 | 24 ft | 18 kts | 215° |
| 2026-04-24 13:38 | 55.62038 | 12.64987 | 25 ft | 18 kts | 213° |
| 2026-04-24 13:38 | 55.61932 | 12.64865 | 22 ft | 18 kts | 213° |
| 2026-04-24 13:38 | 55.61824 | 12.64744 | 26 ft | 18 kts | 215° |
| 2026-04-24 13:39 | 55.61720 | 12.64618 | 25 ft | 18 kts | 213° |
| 2026-04-24 13:39 | 55.61614 | 12.64498 | 26 ft | 18 kts | 213° |
| 2026-04-24 13:39 | 55.61508 | 12.64374 | 24 ft | 18 kts | 212° |
| 2026-04-24 13:39 | 55.61401 | 12.64252 | 26 ft | 18 kts | 214° |
| 2026-04-24 13:40 | 55.61295 | 12.64129 | 26 ft | 18 kts | 211° |
| 2026-04-24 13:40 | 55.61188 | 12.64009 | 24 ft | 18 kts | 213° |
| 2026-04-24 13:40 | 55.61084 | 12.63887 | 26 ft | 18 kts | 215° |
| 2026-04-24 13:40 | 55.60977 | 12.63765 | 26 ft | 18 kts | 211° |
| 2026-04-24 13:41 | 55.60871 | 12.63645 | 23 ft | 15 kts | 214° |
| 2026-04-24 13:41 | 55.60793 | 12.63598 | 25 ft | 12 kts | 165° |
| 2026-04-24 13:41 | 55.60722 | 12.63715 | 25 ft | 14 kts | 131° |
| 2026-04-24 13:41 | 55.60676 | 12.63862 | 27 ft | 14 kts | 81° |
| 2026-04-24 13:42 | 55.60704 | 12.63920 | 27 ft | 0 kts | 38° |
| 2026-04-24 13:42 | 55.60707 | 12.63923 | 25 ft | 3 kts | 37° |
| 2026-04-24 13:42 | 55.60916 | 12.64239 | 26 ft | 88 kts | 41° |
| 2026-04-24 13:43 | 55.61597 | 12.65300 | 168 ft | 160 kts | 41° |
| 2026-04-24 13:43 | 55.62479 | 12.66782 | 922 ft | 191 kts | 41° |
| 2026-04-24 13:43 | 55.63478 | 12.68627 | 1725 ft | 225 kts | 43° |
| 2026-04-24 13:43 | 55.64544 | 12.70758 | 2609 ft | 234 kts | 41° |
| 2026-04-24 13:44 | 55.65838 | 12.72606 | 3224 ft | 242 kts | 30° |
| 2026-04-24 13:44 | 55.67240 | 12.74341 | 4136 ft | 248 kts | 32° |
| 2026-04-24 13:44 | 55.68628 | 12.76218 | 5060 ft | 253 kts | 34° |
| 2026-04-24 13:44 | 55.69946 | 12.78262 | 5754 ft | 261 kts | 47° |
| 2026-04-24 13:45 | 55.70611 | 12.81356 | 6461 ft | 282 kts | 82° |
| 2026-04-24 13:45 | 55.70246 | 12.84825 | 7268 ft | 295 kts | 113° |
| 2026-04-24 13:45 | 55.68923 | 12.87624 | 8074 ft | 303 kts | 147° |
| 2026-04-24 13:45 | 55.66994 | 12.89112 | 8755 ft | 304 kts | 164° |
| 2026-04-24 13:46 | 55.64948 | 12.90302 | 9462 ft | 312 kts | 163° |
| 2026-04-24 13:46 | 55.62912 | 12.91490 | 10260 ft | 310 kts | 168° |
| 2026-04-24 13:46 | 55.60725 | 12.91706 | 10523 ft | 325 kts | 196° |
| 2026-04-24 13:46 | 55.58677 | 12.90043 | 11092 ft | 326 kts | 222° |
| 2026-04-24 13:47 | 55.57035 | 12.87290 | 11797 ft | 327 kts | 232° |
| 2026-04-24 13:47 | 55.55449 | 12.84326 | 12746 ft | 334 kts | 231° |
| 2026-04-24 13:47 | 55.53849 | 12.81380 | 13835 ft | 336 kts | 231° |
| 2026-04-24 13:47 | 55.52019 | 12.78735 | 14607 ft | 349 kts | 212° |
| 2026-04-24 13:48 | 55.49613 | 12.77605 | 15485 ft | 368 kts | 186° |
| 2026-04-24 13:48 | 55.47075 | 12.77967 | 16382 ft | 372 kts | 176° |
| 2026-04-24 13:48 | 55.44480 | 12.78600 | 17232 ft | 380 kts | 175° |
| 2026-04-24 13:48 | 55.41848 | 12.79237 | 18203 ft | 384 kts | 176° |
| 2026-04-24 13:49 | 55.39186 | 12.79841 | 19064 ft | 387 kts | 177° |
| 2026-04-24 13:49 | 55.36508 | 12.80422 | 19854 ft | 392 kts | 177° |
| 2026-04-24 13:49 | 55.33809 | 12.81199 | 20505 ft | 399 kts | 167° |
| 2026-04-24 13:49 | 55.31287 | 12.83462 | 21127 ft | 413 kts | 143° |
| 2026-04-24 13:50 | 55.29063 | 12.86717 | 21709 ft | 421 kts | 142° |
| 2026-04-24 13:50 | 55.26778 | 12.90016 | 22461 ft | 427 kts | 142° |
| 2026-04-24 13:50 | 55.24456 | 12.93305 | 23317 ft | 430 kts | 143° |
| 2026-04-24 13:50 | 55.22107 | 12.96601 | 24042 ft | 435 kts | 143° |
| 2026-04-24 13:51 | 55.19728 | 12.99920 | 24716 ft | 439 kts | 143° |
| 2026-04-24 13:51 | 55.17316 | 13.03275 | 25420 ft | 443 kts | 143° |
| 2026-04-24 13:51 | 55.14926 | 13.06595 | 26092 ft | 447 kts | 143° |
| 2026-04-24 13:51 | 55.12470 | 13.09999 | 26773 ft | 451 kts | 143° |
| 2026-04-24 13:52 | 55.09999 | 13.13422 | 27445 ft | 455 kts | 144° |
| 2026-04-24 13:52 | 55.07491 | 13.16886 | 28121 ft | 460 kts | 144° |
| 2026-04-24 13:52 | 55.04964 | 13.20373 | 28679 ft | 465 kts | 144° |
| 2026-04-24 13:52 | 55.02409 | 13.23893 | 29279 ft | 470 kts | 144° |
| 2026-04-24 13:53 | 54.99856 | 13.27407 | 29854 ft | 475 kts | 144° |
| 2026-04-24 13:53 | 54.97246 | 13.30996 | 30393 ft | 479 kts | 144° |
| 2026-04-24 13:53 | 54.94610 | 13.34610 | 30847 ft | 483 kts | 144° |
| 2026-04-24 13:53 | 54.91967 | 13.38250 | 31311 ft | 487 kts | 142° |
| 2026-04-24 13:54 | 54.89529 | 13.42372 | 31713 ft | 493 kts | 133° |
| 2026-04-24 13:54 | 54.87359 | 13.46939 | 32122 ft | 497 kts | 129° |
| 2026-04-24 13:54 | 54.85207 | 13.51705 | 32524 ft | 501 kts | 129° |
| 2026-04-24 13:54 | 54.83039 | 13.56497 | 32922 ft | 505 kts | 129° |
| 2026-04-24 13:55 | 54.80833 | 13.61269 | 33336 ft | 509 kts | 130° |
| 2026-04-24 13:55 | 54.78606 | 13.65977 | 33739 ft | 512 kts | 131° |
| 2026-04-24 13:55 | 54.76310 | 13.70758 | 34088 ft | 516 kts | 131° |
| 2026-04-24 13:55 | 54.73996 | 13.75538 | 34370 ft | 519 kts | 131° |
| 2026-04-24 13:56 | 54.71658 | 13.80353 | 34711 ft | 521 kts | 131° |
| 2026-04-24 13:56 | 54.69324 | 13.85160 | 35043 ft | 524 kts | 131° |
| 2026-04-24 13:56 | 54.64622 | 13.94839 | 35026 ft | 527 kts | 131° |
| 2026-04-24 13:57 | 54.59493 | 14.03586 | 35030 ft | 515 kts | 153° |
| 2026-04-24 13:57 | 54.56235 | 14.06036 | 35032 ft | 508 kts | 169° |
| 2026-04-24 13:57 | 54.52793 | 14.07143 | 35032 ft | 500 kts | 182° |
| 2026-04-24 13:58 | 54.49375 | 14.06901 | 35036 ft | 487 kts | 194° |
| 2026-04-24 13:58 | 54.46004 | 14.06140 | 35039 ft | 488 kts | 194° |
| 2026-04-24 13:58 | 54.39237 | 14.04714 | 35019 ft | 490 kts | 193° |
| 2026-04-24 13:59 | 54.32467 | 14.03431 | 35027 ft | 489 kts | 193° |
| 2026-04-24 13:59 | 54.25700 | 14.02203 | 35030 ft | 488 kts | 192° |
| 2026-04-24 14:00 | 54.19003 | 14.00990 | 35007 ft | 486 kts | 193° |
| 2026-04-24 14:00 | 54.12286 | 13.99772 | 35039 ft | 484 kts | 193° |
| 2026-04-24 14:01 | 54.05594 | 13.98559 | 35041 ft | 483 kts | 193° |
| 2026-04-24 14:01 | 53.98916 | 13.97353 | 35043 ft | 483 kts | 192° |
| 2026-04-24 14:02 | 53.92174 | 13.96767 | 35023 ft | 490 kts | 183° |
| 2026-04-24 14:02 | 53.85353 | 13.97368 | 35038 ft | 491 kts | 183° |
| 2026-04-24 14:03 | 53.78561 | 13.97964 | 35052 ft | 491 kts | 183° |
| 2026-04-24 14:03 | 53.71748 | 13.98510 | 34716 ft | 487 kts | 183° |
| 2026-04-24 14:04 | 53.68359 | 13.98772 | 34199 ft | 484 kts | 183° |
| 2026-04-24 14:04 | 53.65003 | 13.99026 | 33584 ft | 481 kts | 183° |
| 2026-04-24 14:04 | 53.61669 | 13.99276 | 33023 ft | 478 kts | 183° |
| 2026-04-24 14:04 | 53.58360 | 13.99525 | 32534 ft | 474 kts | 183° |
| 2026-04-24 14:05 | 53.55079 | 13.99772 | 32047 ft | 469 kts | 183° |
| 2026-04-24 14:05 | 53.51831 | 14.00016 | 31554 ft | 466 kts | 183° |
| 2026-04-24 14:05 | 53.48604 | 14.00258 | 31074 ft | 462 kts | 183° |
| 2026-04-24 14:05 | 53.45439 | 14.00495 | 30595 ft | 459 kts | 183° |
| 2026-04-24 14:06 | 53.42251 | 14.00733 | 30111 ft | 456 kts | 182° |
| 2026-04-24 14:06 | 53.39090 | 14.00970 | 29611 ft | 452 kts | 182° |
| 2026-04-24 14:06 | 53.35968 | 14.01204 | 29131 ft | 448 kts | 182° |
| 2026-04-24 14:06 | 53.32861 | 14.01435 | 28533 ft | 446 kts | 182° |
| 2026-04-24 14:07 | 53.29767 | 14.01664 | 28027 ft | 444 kts | 182° |
| 2026-04-24 14:07 | 53.26691 | 14.01893 | 27548 ft | 440 kts | 182° |
| 2026-04-24 14:07 | 53.23643 | 14.02120 | 27097 ft | 436 kts | 182° |
| 2026-04-24 14:07 | 53.20616 | 14.02345 | 26661 ft | 433 kts | 182° |
| 2026-04-24 14:08 | 53.17628 | 14.02567 | 26197 ft | 430 kts | 182° |
| 2026-04-24 14:08 | 53.14682 | 14.02784 | 25754 ft | 427 kts | 181° |
| 2026-04-24 14:08 | 53.11719 | 14.03002 | 25338 ft | 424 kts | 181° |
| 2026-04-24 14:08 | 53.08787 | 14.03218 | 24933 ft | 421 kts | 181° |
| 2026-04-24 14:09 | 53.05873 | 14.03432 | 24521 ft | 418 kts | 181° |
| 2026-04-24 14:09 | 53.02975 | 14.03645 | 24123 ft | 416 kts | 181° |
| 2026-04-24 14:09 | 53.00090 | 14.03857 | 23734 ft | 413 kts | 181° |
| 2026-04-24 14:09 | 52.97222 | 14.04067 | 23295 ft | 411 kts | 181° |
| 2026-04-24 14:10 | 52.95335 | 14.04206 | 23011 ft | 409 kts | 181° |
| 2026-04-24 14:10 | 52.91584 | 14.04483 | 22220 ft | 402 kts | 181° |
| 2026-04-24 14:10 | 52.88776 | 14.04686 | 21691 ft | 402 kts | 181° |
| 2026-04-24 14:10 | 52.85988 | 14.04890 | 21282 ft | 399 kts | 181° |
| 2026-04-24 14:11 | 52.83260 | 14.05091 | 20908 ft | 396 kts | 181° |
| 2026-04-24 14:11 | 52.80516 | 14.05292 | 20520 ft | 393 kts | 181° |
| 2026-04-24 14:11 | 52.75080 | 14.05687 | 19725 ft | 389 kts | 181° |
| 2026-04-24 14:12 | 52.72383 | 14.05883 | 19347 ft | 387 kts | 181° |
| 2026-04-24 14:12 | 52.69703 | 14.06077 | 18973 ft | 385 kts | 181° |
| 2026-04-24 14:12 | 52.67037 | 14.06269 | 18614 ft | 383 kts | 181° |
| 2026-04-24 14:12 | 52.64384 | 14.06461 | 18231 ft | 380 kts | 181° |
| 2026-04-24 14:13 | 52.61743 | 14.06652 | 17815 ft | 379 kts | 181° |
| 2026-04-24 14:13 | 52.59119 | 14.06841 | 17401 ft | 377 kts | 180° |
| 2026-04-24 14:13 | 52.56504 | 14.07029 | 16983 ft | 376 kts | 180° |
| 2026-04-24 14:13 | 52.53893 | 14.07215 | 16568 ft | 374 kts | 180° |
| 2026-04-24 14:14 | 52.51294 | 14.07402 | 16178 ft | 373 kts | 180° |
| 2026-04-24 14:14 | 52.48704 | 14.07588 | 15791 ft | 371 kts | 180° |
| 2026-04-24 14:14 | 52.43573 | 14.07955 | 14981 ft | 370 kts | 180° |
| 2026-04-24 14:15 | 52.40999 | 14.08139 | 14595 ft | 369 kts | 179° |
| 2026-04-24 14:15 | 52.38445 | 14.08321 | 14300 ft | 365 kts | 179° |
| 2026-04-24 14:15 | 52.35916 | 14.08502 | 13960 ft | 363 kts | 179° |
| 2026-04-24 14:15 | 52.33394 | 14.08682 | 13550 ft | 362 kts | 179° |
| 2026-04-24 14:16 | 52.30886 | 14.08928 | 13149 ft | 361 kts | 176° |
| 2026-04-24 14:16 | 52.28394 | 14.09424 | 12768 ft | 360 kts | 174° |
| 2026-04-24 14:16 | 52.25920 | 14.09983 | 12395 ft | 358 kts | 174° |
| 2026-04-24 14:17 | 52.21001 | 14.11051 | 11663 ft | 355 kts | 174° |
| 2026-04-24 14:17 | 52.18557 | 14.11556 | 11312 ft | 353 kts | 175° |
| 2026-04-24 14:17 | 52.13727 | 14.12545 | 10603 ft | 350 kts | 175° |
| 2026-04-24 14:18 | 52.11317 | 14.13039 | 10268 ft | 348 kts | 175° |
| 2026-04-24 14:18 | 52.08919 | 14.13530 | 9895 ft | 347 kts | 175° |
| 2026-04-24 14:18 | 52.06530 | 14.14017 | 9538 ft | 344 kts | 175° |
| 2026-04-24 14:18 | 52.04168 | 14.14499 | 9233 ft | 340 kts | 175° |
| 2026-04-24 14:19 | 52.02618 | 14.14816 | 9019 ft | 338 kts | 175° |
| 2026-04-24 14:19 | 51.99511 | 14.15448 | 8588 ft | 335 kts | 175° |
| 2026-04-24 14:19 | 51.97206 | 14.15917 | 8260 ft | 332 kts | 175° |
| 2026-04-24 14:19 | 51.94935 | 14.16379 | 8154 ft | 326 kts | 175° |
| 2026-04-24 14:20 | 51.92674 | 14.16837 | 8119 ft | 328 kts | 175° |
| 2026-04-24 14:20 | 51.90397 | 14.17298 | 8099 ft | 331 kts | 175° |
| 2026-04-24 14:20 | 51.88110 | 14.17770 | 8108 ft | 331 kts | 174° |
| 2026-04-24 14:20 | 51.85827 | 14.18254 | 8095 ft | 330 kts | 174° |
| 2026-04-24 14:21 | 51.83580 | 14.18730 | 8106 ft | 330 kts | 174° |
| 2026-04-24 14:21 | 51.81302 | 14.19210 | 8103 ft | 330 kts | 174° |
| 2026-04-24 14:21 | 51.79025 | 14.19685 | 8102 ft | 330 kts | 174° |
| 2026-04-24 14:21 | 51.76749 | 14.20150 | 8111 ft | 330 kts | 174° |
| 2026-04-24 14:22 | 51.74467 | 14.20612 | 8116 ft | 330 kts | 175° |
| 2026-04-24 14:22 | 51.72182 | 14.21075 | 8102 ft | 331 kts | 174° |
| 2026-04-24 14:22 | 51.67611 | 14.22002 | 8106 ft | 331 kts | 174° |
| 2026-04-24 14:23 | 51.65323 | 14.22466 | 8105 ft | 331 kts | 174° |
| 2026-04-24 14:23 | 51.63036 | 14.22929 | 8083 ft | 329 kts | 174° |
| 2026-04-24 14:23 | 51.60842 | 14.23376 | 7910 ft | 305 kts | 174° |
| 2026-04-24 14:23 | 51.58801 | 14.23791 | 7494 ft | 288 kts | 175° |
| 2026-04-24 14:24 | 51.56879 | 14.24179 | 7129 ft | 269 kts | 174° |
| 2026-04-24 14:24 | 51.55070 | 14.24544 | 6556 ft | 264 kts | 174° |
| 2026-04-24 14:24 | 51.53239 | 14.24911 | 6346 ft | 268 kts | 174° |
| 2026-04-24 14:24 | 51.51383 | 14.24953 | 6141 ft | 267 kts | 195° |
| 2026-04-24 14:25 | 51.50239 | 14.24221 | 6129 ft | 258 kts | 214° |
| 2026-04-24 14:25 | 51.48270 | 14.22096 | 6128 ft | 259 kts | 217° |
| 2026-04-24 14:25 | 51.46771 | 14.20495 | 6125 ft | 258 kts | 217° |
| 2026-04-24 14:25 | 51.45279 | 14.18905 | 6106 ft | 257 kts | 217° |
| 2026-04-24 14:26 | 51.43788 | 14.17319 | 6126 ft | 256 kts | 217° |
| 2026-04-24 14:26 | 51.42315 | 14.15755 | 6077 ft | 252 kts | 217° |
| 2026-04-24 14:26 | 51.40859 | 14.14213 | 6034 ft | 249 kts | 217° |
| 2026-04-24 14:26 | 51.39449 | 14.12640 | 5930 ft | 244 kts | 220° |
| 2026-04-24 14:27 | 51.38128 | 14.10964 | 5609 ft | 242 kts | 224° |
| 2026-04-24 14:27 | 51.36849 | 14.09220 | 5265 ft | 247 kts | 224° |
| 2026-04-24 14:27 | 51.35551 | 14.07419 | 5159 ft | 246 kts | 225° |
| 2026-04-24 14:27 | 51.34276 | 14.05646 | 5084 ft | 241 kts | 225° |
| 2026-04-24 14:28 | 51.33011 | 14.03887 | 5023 ft | 236 kts | 225° |
| 2026-04-24 14:28 | 51.31791 | 14.02191 | 5021 ft | 230 kts | 225° |
| 2026-04-24 14:28 | 51.30589 | 14.00522 | 5008 ft | 229 kts | 225° |
| 2026-04-24 14:28 | 51.29368 | 13.98825 | 4730 ft | 234 kts | 225° |
| 2026-04-24 14:29 | 51.28554 | 13.97695 | 4504 ft | 233 kts | 225° |
| 2026-04-24 14:29 | 51.27332 | 13.96003 | 4216 ft | 232 kts | 225° |
| 2026-04-24 14:29 | 51.26127 | 13.94335 | 3887 ft | 224 kts | 225° |
| 2026-04-24 14:29 | 51.24979 | 13.92746 | 3591 ft | 213 kts | 225° |
| 2026-04-24 14:30 | 51.23887 | 13.91237 | 3312 ft | 203 kts | 225° |
| 2026-04-24 14:30 | 51.22845 | 13.89791 | 3031 ft | 193 kts | 225° |
| 2026-04-24 14:30 | 51.21852 | 13.88418 | 2806 ft | 185 kts | 225° |
| 2026-04-24 14:30 | 51.20899 | 13.87104 | 2518 ft | 175 kts | 226° |
| 2026-04-24 14:31 | 51.19999 | 13.85860 | 2295 ft | 170 kts | 225° |
| 2026-04-24 14:31 | 51.19124 | 13.84654 | 2073 ft | 163 kts | 227° |
| 2026-04-24 14:31 | 51.18314 | 13.83533 | 1863 ft | 146 kts | 225° |
| 2026-04-24 14:31 | 51.17556 | 13.82510 | 1683 ft | 140 kts | 223° |
| 2026-04-24 14:32 | 51.16828 | 13.81593 | 1510 ft | 123 kts | 223° |
| 2026-04-24 14:32 | 51.16161 | 13.80710 | 1348 ft | 127 kts | 232° |
| 2026-04-24 14:32 | 51.15548 | 13.79770 | 1105 ft | 118 kts | 232° |
| 2026-04-24 14:32 | 51.14943 | 13.78896 | 938 ft | 117 kts | 226° |
| 2026-04-24 14:33 | 51.14313 | 13.78023 | 792 ft | 120 kts | 227° |
| 2026-04-24 14:33 | 51.13719 | 13.77202 | 723 ft | 102 kts | 228° |
| 2026-04-24 14:33 | 51.13301 | 13.76615 | 721 ft | 54 kts | 221° |
| 2026-04-24 14:33 | 51.13145 | 13.76401 | 723 ft | 17 kts | 220° |
| 2026-04-24 14:34 | 51.13011 | 13.76217 | 720 ft | 27 kts | 221° |
| 2026-04-24 14:34 | 51.12871 | 13.76021 | 719 ft | 27 kts | 220° |
| 2026-04-24 14:34 | 51.12750 | 13.75863 | 720 ft | 17 kts | 208° |
| 2026-04-24 14:34 | 51.12649 | 13.75926 | 720 ft | 17 kts | 129° |
| 2026-04-24 14:35 | 51.12599 | 13.76022 | 719 ft | 6 kts | 131° |
| 2026-04-24 14:35 | 51.12594 | 13.76031 | 719 ft | 8 kts | 131° |
| 2026-04-24 14:35 | 51.12608 | 13.76141 | 720 ft | 12 kts | 40° |
| 2026-04-24 14:35 | 51.12674 | 13.76229 | 719 ft | 12 kts | 40° |
| 2026-04-24 14:36 | 51.12739 | 13.76319 | 720 ft | 12 kts | 42° |
| 2026-04-24 14:36 | 51.12803 | 13.76410 | 720 ft | 13 kts | 41° |
| 2026-04-24 14:36 | 51.12878 | 13.76513 | 720 ft | 14 kts | 40° |
| 2026-04-24 14:36 | 51.12953 | 13.76615 | 719 ft | 9 kts | 40° |
| 2026-04-24 14:37 | 51.12988 | 13.76662 | 719 ft | 8 kts | 40° |
| 2026-04-24 14:37 | 51.12997 | 13.76728 | 719 ft | 4 kts | 115° |
| 2026-04-24 14:37 | 51.12981 | 13.76767 | 720 ft | 4 kts | 127° |
| 2026-04-24 14:37 | 51.12976 | 13.76777 | 720 ft | 0 kts | 127° |